Aérodrome :
LOGIN :

S'inscrire | Disclaimer

   EN    FR    IT 

 










Légende :    VFR   VFR Marginal   IFR   IFR Intensif   IFR Très Intensif
Visi : 
Plafond : 
>= 8 km
>= 3000ft
5 à 8 km
1000 à 3000 ft
1500m à 5 km
500 à 1000 ft
800 à 1500m
200 à 500 ft
< 800m
< 200 ft
Symboles :   Orages  Brouillard  Fortes neiges  Fortes précipitations  Vent > 20 kt
SIGMETs :   Divers  Orages  Givrage  Turbulence  Onde Orograph.  Cendres Volcan.






- Altitude de l'aérodrome : 1649 ft
- Code IATA : HHN


EDFH - Frankfurt-Hahn Rhineland-Palatinate

DERNIER METAR :
  • 270650Z 14004KT 090V200 CAVOK 14/06 Q1034

METARs EXPIRÉS :
  • 270620Z 11004KT 080V140 CAVOK 14/06 Q1034
  • 270550Z 13004KT CAVOK 13/06 Q1034
  • 270520Z 14004KT CAVOK 12/06 Q1034
  • 270450Z 14005KT 120V190 CAVOK 10/06 Q1034
  • 270420Z 14005KT CAVOK 09/05 Q1034
  • 270350Z 14005KT CAVOK 09/05 Q1034

TAF TAF EDFH
Valide du 27 à 06h jusqu'au 28 à 06h UTC


270500Z 2706/2806 13005KT CAVOK
BECMG 2708/2711 04005KT



MET'MAP, la Météo Aéronautique d'un coup d'oeil ! - Copyright ORBIFLY Décembre 2007 - Disclaimer

ORBIFLY MET'MAP TEAM :

Programmation & Développement : Alexandra Zaïnal
Sur une idée originale de : Baudouin d'Aumeries
Assistance à la programmation : Marc-Olivier Méhu
Soutien technique & logistique : Manuel Goepfert

Contact : metmap@orbifly.com




SOURCES & CREDITS :

   NOAA